sensor_id;sensor_type;location;lat;lon;timestamp;P1;durP1;ratioP1;P2;durP2;ratioP2
75234;SDS011;63817;51.228;-1.472;2023-04-21T00:01:13;28.88;;;12.98;;
75234;SDS011;63817;51.228;-1.472;2023-04-21T00:03:39;32.35;;;12.30;;
75234;SDS011;63817;51.228;-1.472;2023-04-21T00:06:05;26.42;;;12.55;;
75234;SDS011;63817;51.228;-1.472;2023-04-21T00:08:32;24.35;;;12.35;;
75234;SDS011;63817;51.228;-1.472;2023-04-21T00:10:58;27.13;;;12.18;;
75234;SDS011;63817;51.228;-1.472;2023-04-21T00:13:23;27.95;;;12.48;;
75234;SDS011;63817;51.228;-1.472;2023-04-21T00:15:49;31.17;;;13.02;;
75234;SDS011;63817;51.228;-1.472;2023-04-21T00:18:15;22.52;;;12.23;;
75234;SDS011;63817;51.228;-1.472;2023-04-21T00:20:41;21.85;;;12.07;;
75234;SDS011;63817;51.228;-1.472;2023-04-21T00:23:07;26.92;;;14.05;;
75234;SDS011;63817;51.228;-1.472;2023-04-21T00:25:34;25.52;;;13.13;;
75234;SDS011;63817;51.228;-1.472;2023-04-21T00:28:00;21.90;;;12.52;;
75234;SDS011;63817;51.228;-1.472;2023-04-21T00:30:25;23.60;;;13.45;;
75234;SDS011;63817;51.228;-1.472;2023-04-21T00:32:51;29.63;;;13.20;;
75234;SDS011;63817;51.228;-1.472;2023-04-21T00:35:16;25.73;;;14.63;;
75234;SDS011;63817;51.228;-1.472;2023-04-21T00:37:42;26.65;;;13.85;;
75234;SDS011;63817;51.228;-1.472;2023-04-21T00:40:07;27.38;;;13.70;;
75234;SDS011;63817;51.228;-1.472;2023-04-21T00:42:33;26.48;;;13.20;;
75234;SDS011;63817;51.228;-1.472;2023-04-21T00:44:58;28.63;;;14.23;;
75234;SDS011;63817;51.228;-1.472;2023-04-21T00:47:24;33.38;;;14.32;;
75234;SDS011;63817;51.228;-1.472;2023-04-21T00:49:49;26.35;;;14.30;;
75234;SDS011;63817;51.228;-1.472;2023-04-21T00:52:16;28.92;;;16.40;;
75234;SDS011;63817;51.228;-1.472;2023-04-21T00:54:42;25.80;;;15.15;;
75234;SDS011;63817;51.228;-1.472;2023-04-21T00:57:08;36.55;;;16.33;;
75234;SDS011;63817;51.228;-1.472;2023-04-21T00:59:35;26.27;;;16.05;;
75234;SDS011;63817;51.228;-1.472;2023-04-21T01:02:00;33.90;;;15.88;;
75234;SDS011;63817;51.228;-1.472;2023-04-21T01:04:26;31.58;;;15.18;;
75234;SDS011;63817;51.228;-1.472;2023-04-21T01:06:52;42.22;;;16.23;;
75234;SDS011;63817;51.228;-1.472;2023-04-21T01:09:18;30.05;;;17.35;;
75234;SDS011;63817;51.228;-1.472;2023-04-21T01:12:01;29.88;;;15.52;;
75234;SDS011;63817;51.228;-1.472;2023-04-21T01:14:30;36.83;;;16.20;;
75234;SDS011;63817;51.228;-1.472;2023-04-21T01:16:56;27.80;;;16.42;;
75234;SDS011;63817;51.228;-1.472;2023-04-21T01:19:22;32.53;;;16.38;;
75234;SDS011;63817;51.228;-1.472;2023-04-21T01:21:49;34.67;;;17.75;;
75234;SDS011;63817;51.228;-1.472;2023-04-21T01:24:15;33.67;;;17.30;;
75234;SDS011;63817;51.228;-1.472;2023-04-21T01:26:40;36.60;;;16.95;;
75234;SDS011;63817;51.228;-1.472;2023-04-21T01:29:08;37.58;;;17.63;;
75234;SDS011;63817;51.228;-1.472;2023-04-21T01:31:34;38.60;;;18.13;;
75234;SDS011;63817;51.228;-1.472;2023-04-21T01:34:02;34.10;;;17.25;;
75234;SDS011;63817;51.228;-1.472;2023-04-21T01:36:28;38.50;;;18.13;;
75234;SDS011;63817;51.228;-1.472;2023-04-21T01:38:54;44.00;;;18.80;;
75234;SDS011;63817;51.228;-1.472;2023-04-21T01:41:19;34.97;;;18.98;;
75234;SDS011;63817;51.228;-1.472;2023-04-21T01:43:44;33.47;;;17.90;;
75234;SDS011;63817;51.228;-1.472;2023-04-21T01:46:10;36.65;;;19.48;;
75234;SDS011;63817;51.228;-1.472;2023-04-21T01:48:35;44.05;;;17.75;;
75234;SDS011;63817;51.228;-1.472;2023-04-21T01:51:01;37.75;;;17.90;;
75234;SDS011;63817;51.228;-1.472;2023-04-21T01:53:27;41.47;;;19.73;;
75234;SDS011;63817;51.228;-1.472;2023-04-21T01:55:52;40.65;;;17.73;;
75234;SDS011;63817;51.228;-1.472;2023-04-21T01:58:18;37.20;;;18.90;;
75234;SDS011;63817;51.228;-1.472;2023-04-21T02:00:44;38.65;;;19.55;;
75234;SDS011;63817;51.228;-1.472;2023-04-21T02:03:09;40.75;;;18.55;;
75234;SDS011;63817;51.228;-1.472;2023-04-21T02:05:34;35.42;;;18.65;;
75234;SDS011;63817;51.228;-1.472;2023-04-21T02:08:00;36.00;;;19.63;;
75234;SDS011;63817;51.228;-1.472;2023-04-21T02:10:25;35.85;;;17.83;;
75234;SDS011;63817;51.228;-1.472;2023-04-21T02:12:50;39.72;;;19.65;;
75234;SDS011;63817;51.228;-1.472;2023-04-21T02:15:16;36.13;;;18.67;;
75234;SDS011;63817;51.228;-1.472;2023-04-21T02:17:41;37.25;;;18.45;;
75234;SDS011;63817;51.228;-1.472;2023-04-21T02:20:08;38.55;;;19.05;;
75234;SDS011;63817;51.228;-1.472;2023-04-21T02:22:36;44.42;;;21.02;;
75234;SDS011;63817;51.228;-1.472;2023-04-21T02:25:02;35.38;;;19.23;;
75234;SDS011;63817;51.228;-1.472;2023-04-21T02:27:29;40.72;;;21.20;;
75234;SDS011;63817;51.228;-1.472;2023-04-21T02:29:54;37.58;;;19.48;;
75234;SDS011;63817;51.228;-1.472;2023-04-21T02:32:19;38.15;;;20.17;;
75234;SDS011;63817;51.228;-1.472;2023-04-21T02:34:45;40.80;;;19.67;;
75234;SDS011;63817;51.228;-1.472;2023-04-21T02:37:10;46.65;;;21.02;;
75234;SDS011;63817;51.228;-1.472;2023-04-21T02:39:36;38.95;;;19.85;;
75234;SDS011;63817;51.228;-1.472;2023-04-21T02:42:01;36.90;;;19.63;;
75234;SDS011;63817;51.228;-1.472;2023-04-21T02:44:26;42.60;;;20.02;;
75234;SDS011;63817;51.228;-1.472;2023-04-21T02:46:52;40.10;;;19.50;;
75234;SDS011;63817;51.228;-1.472;2023-04-21T02:49:17;39.85;;;20.02;;
75234;SDS011;63817;51.228;-1.472;2023-04-21T02:51:42;44.58;;;21.25;;
75234;SDS011;63817;51.228;-1.472;2023-04-21T02:54:08;38.40;;;21.73;;
75234;SDS011;63817;51.228;-1.472;2023-04-21T02:56:33;39.70;;;21.90;;
75234;SDS011;63817;51.228;-1.472;2023-04-21T02:58:59;38.30;;;19.23;;
75234;SDS011;63817;51.228;-1.472;2023-04-21T03:01:24;44.10;;;21.30;;
75234;SDS011;63817;51.228;-1.472;2023-04-21T03:03:49;39.85;;;19.80;;
75234;SDS011;63817;51.228;-1.472;2023-04-21T03:06:15;36.47;;;20.90;;
75234;SDS011;63817;51.228;-1.472;2023-04-21T03:08:40;38.72;;;20.33;;
75234;SDS011;63817;51.228;-1.472;2023-04-21T03:11:06;51.03;;;21.40;;
75234;SDS011;63817;51.228;-1.472;2023-04-21T03:13:31;41.30;;;20.25;;
75234;SDS011;63817;51.228;-1.472;2023-04-21T03:15:57;46.08;;;20.13;;
75234;SDS011;63817;51.228;-1.472;2023-04-21T03:18:22;36.42;;;20.45;;
75234;SDS011;63817;51.228;-1.472;2023-04-21T03:20:48;37.25;;;21.05;;
75234;SDS011;63817;51.228;-1.472;2023-04-21T03:23:13;44.47;;;20.80;;
75234;SDS011;63817;51.228;-1.472;2023-04-21T03:25:39;41.97;;;21.63;;
75234;SDS011;63817;51.228;-1.472;2023-04-21T03:28:05;41.85;;;20.98;;
75234;SDS011;63817;51.228;-1.472;2023-04-21T03:30:30;45.78;;;20.90;;
75234;SDS011;63817;51.228;-1.472;2023-04-21T03:32:56;45.22;;;21.67;;
75234;SDS011;63817;51.228;-1.472;2023-04-21T03:35:22;47.65;;;22.75;;
75234;SDS011;63817;51.228;-1.472;2023-04-21T03:37:48;45.65;;;21.65;;
75234;SDS011;63817;51.228;-1.472;2023-04-21T03:40:16;47.15;;;21.50;;
75234;SDS011;63817;51.228;-1.472;2023-04-21T03:42:41;40.10;;;21.23;;
75234;SDS011;63817;51.228;-1.472;2023-04-21T03:45:07;48.05;;;23.45;;
75234;SDS011;63817;51.228;-1.472;2023-04-21T03:47:33;43.30;;;22.75;;
75234;SDS011;63817;51.228;-1.472;2023-04-21T03:49:59;40.40;;;22.00;;
75234;SDS011;63817;51.228;-1.472;2023-04-21T03:52:24;40.83;;;22.30;;
75234;SDS011;63817;51.228;-1.472;2023-04-21T03:54:50;45.47;;;22.05;;
75234;SDS011;63817;51.228;-1.472;2023-04-21T03:57:15;45.08;;;22.08;;
75234;SDS011;63817;51.228;-1.472;2023-04-21T03:59:41;46.08;;;22.25;;
75234;SDS011;63817;51.228;-1.472;2023-04-21T04:02:07;50.20;;;22.30;;
75234;SDS011;63817;51.228;-1.472;2023-04-21T04:04:32;40.40;;;22.77;;
75234;SDS011;63817;51.228;-1.472;2023-04-21T04:06:58;44.78;;;22.92;;
75234;SDS011;63817;51.228;-1.472;2023-04-21T04:09:24;46.55;;;23.05;;
75234;SDS011;63817;51.228;-1.472;2023-04-21T04:11:49;39.78;;;21.48;;
75234;SDS011;63817;51.228;-1.472;2023-04-21T04:14:15;38.83;;;22.13;;
75234;SDS011;63817;51.228;-1.472;2023-04-21T04:16:40;44.13;;;23.98;;
75234;SDS011;63817;51.228;-1.472;2023-04-21T04:19:06;54.35;;;25.52;;
75234;SDS011;63817;51.228;-1.472;2023-04-21T04:21:31;46.55;;;21.85;;
75234;SDS011;63817;51.228;-1.472;2023-04-21T04:23:57;50.78;;;21.30;;
75234;SDS011;63817;51.228;-1.472;2023-04-21T04:26:23;47.35;;;21.55;;
75234;SDS011;63817;51.228;-1.472;2023-04-21T04:28:49;43.10;;;22.10;;
75234;SDS011;63817;51.228;-1.472;2023-04-21T04:31:15;40.70;;;23.50;;
75234;SDS011;63817;51.228;-1.472;2023-04-21T04:33:41;44.88;;;21.98;;
75234;SDS011;63817;51.228;-1.472;2023-04-21T04:36:06;52.58;;;24.02;;
75234;SDS011;63817;51.228;-1.472;2023-04-21T04:38:32;44.13;;;22.33;;
75234;SDS011;63817;51.228;-1.472;2023-04-21T04:40:59;45.00;;;23.52;;
75234;SDS011;63817;51.228;-1.472;2023-04-21T04:43:26;48.33;;;21.83;;
75234;SDS011;63817;51.228;-1.472;2023-04-21T04:45:51;50.58;;;23.60;;
75234;SDS011;63817;51.228;-1.472;2023-04-21T04:48:17;43.75;;;22.95;;
75234;SDS011;63817;51.228;-1.472;2023-04-21T04:50:43;48.85;;;23.80;;
75234;SDS011;63817;51.228;-1.472;2023-04-21T04:53:08;41.10;;;23.52;;
75234;SDS011;63817;51.228;-1.472;2023-04-21T04:55:34;45.15;;;24.05;;
75234;SDS011;63817;51.228;-1.472;2023-04-21T04:57:59;44.50;;;23.63;;
75234;SDS011;63817;51.228;-1.472;2023-04-21T05:00:25;44.72;;;24.33;;
75234;SDS011;63817;51.228;-1.472;2023-04-21T05:03:11;43.53;;;24.58;;
75234;SDS011;63817;51.228;-1.472;2023-04-21T05:05:37;54.10;;;23.90;;
75234;SDS011;63817;51.228;-1.472;2023-04-21T05:08:02;42.63;;;23.50;;
75234;SDS011;63817;51.228;-1.472;2023-04-21T05:10:28;40.00;;;24.30;;
75234;SDS011;63817;51.228;-1.472;2023-04-21T05:12:53;48.28;;;23.65;;
75234;SDS011;63817;51.228;-1.472;2023-04-21T05:15:19;42.95;;;23.60;;
75234;SDS011;63817;51.228;-1.472;2023-04-21T05:17:44;51.58;;;24.55;;
75234;SDS011;63817;51.228;-1.472;2023-04-21T05:20:10;54.63;;;24.02;;
75234;SDS011;63817;51.228;-1.472;2023-04-21T05:22:39;45.72;;;24.23;;
75234;SDS011;63817;51.228;-1.472;2023-04-21T05:25:05;49.05;;;23.88;;
75234;SDS011;63817;51.228;-1.472;2023-04-21T05:27:30;39.92;;;22.45;;
75234;SDS011;63817;51.228;-1.472;2023-04-21T05:29:56;49.35;;;23.42;;
75234;SDS011;63817;51.228;-1.472;2023-04-21T05:32:21;46.38;;;23.58;;
75234;SDS011;63817;51.228;-1.472;2023-04-21T05:34:47;48.38;;;23.80;;
75234;SDS011;63817;51.228;-1.472;2023-04-21T05:37:12;42.70;;;21.58;;
75234;SDS011;63817;51.228;-1.472;2023-04-21T05:39:37;44.78;;;22.20;;
75234;SDS011;63817;51.228;-1.472;2023-04-21T05:42:03;36.42;;;20.63;;
75234;SDS011;63817;51.228;-1.472;2023-04-21T05:44:28;43.08;;;22.40;;
75234;SDS011;63817;51.228;-1.472;2023-04-21T05:46:54;41.53;;;21.52;;
75234;SDS011;63817;51.228;-1.472;2023-04-21T05:49:19;38.55;;;20.55;;
75234;SDS011;63817;51.228;-1.472;2023-04-21T05:51:45;39.60;;;21.77;;
75234;SDS011;63817;51.228;-1.472;2023-04-21T05:54:10;34.72;;;20.55;;
75234;SDS011;63817;51.228;-1.472;2023-04-21T05:56:36;40.97;;;21.10;;
75234;SDS011;63817;51.228;-1.472;2023-04-21T05:59:01;44.60;;;21.00;;
75234;SDS011;63817;51.228;-1.472;2023-04-21T06:01:27;40.25;;;21.65;;
75234;SDS011;63817;51.228;-1.472;2023-04-21T06:03:52;49.58;;;21.55;;
75234;SDS011;63817;51.228;-1.472;2023-04-21T06:06:18;37.33;;;21.42;;
75234;SDS011;63817;51.228;-1.472;2023-04-21T06:08:44;38.75;;;22.23;;
75234;SDS011;63817;51.228;-1.472;2023-04-21T06:11:09;45.00;;;20.95;;
75234;SDS011;63817;51.228;-1.472;2023-04-21T06:13:35;39.50;;;22.38;;
75234;SDS011;63817;51.228;-1.472;2023-04-21T06:16:00;38.63;;;21.17;;
75234;SDS011;63817;51.228;-1.472;2023-04-21T06:18:26;37.63;;;22.17;;
75234;SDS011;63817;51.228;-1.472;2023-04-21T06:20:54;40.75;;;20.55;;
75234;SDS011;63817;51.228;-1.472;2023-04-21T06:23:20;44.13;;;21.25;;
75234;SDS011;63817;51.228;-1.472;2023-04-21T06:25:46;40.03;;;22.42;;
75234;SDS011;63817;51.228;-1.472;2023-04-21T06:28:12;30.75;;;19.80;;
75234;SDS011;63817;51.228;-1.472;2023-04-21T06:30:37;43.78;;;20.33;;
75234;SDS011;63817;51.228;-1.472;2023-04-21T06:33:02;35.70;;;20.00;;
75234;SDS011;63817;51.228;-1.472;2023-04-21T06:35:28;35.08;;;21.13;;
75234;SDS011;63817;51.228;-1.472;2023-04-21T06:37:54;39.60;;;20.80;;
75234;SDS011;63817;51.228;-1.472;2023-04-21T06:40:20;38.33;;;21.42;;
75234;SDS011;63817;51.228;-1.472;2023-04-21T06:42:46;46.95;;;21.42;;
75234;SDS011;63817;51.228;-1.472;2023-04-21T06:45:11;39.38;;;21.58;;
75234;SDS011;63817;51.228;-1.472;2023-04-21T06:47:36;45.28;;;22.27;;
75234;SDS011;63817;51.228;-1.472;2023-04-21T06:50:02;38.88;;;21.77;;
75234;SDS011;63817;51.228;-1.472;2023-04-21T06:52:27;41.20;;;23.52;;
75234;SDS011;63817;51.228;-1.472;2023-04-21T06:54:53;43.30;;;22.85;;
75234;SDS011;63817;51.228;-1.472;2023-04-21T06:57:18;48.75;;;23.52;;
75234;SDS011;63817;51.228;-1.472;2023-04-21T06:59:44;47.65;;;24.17;;
75234;SDS011;63817;51.228;-1.472;2023-04-21T07:02:09;50.10;;;22.92;;
75234;SDS011;63817;51.228;-1.472;2023-04-21T07:04:34;44.45;;;23.58;;
75234;SDS011;63817;51.228;-1.472;2023-04-21T07:07:00;41.33;;;22.92;;
75234;SDS011;63817;51.228;-1.472;2023-04-21T07:09:26;40.28;;;22.52;;
75234;SDS011;63817;51.228;-1.472;2023-04-21T07:11:54;42.38;;;23.85;;
75234;SDS011;63817;51.228;-1.472;2023-04-21T07:14:20;53.08;;;26.45;;
75234;SDS011;63817;51.228;-1.472;2023-04-21T07:16:45;49.25;;;24.83;;
75234;SDS011;63817;51.228;-1.472;2023-04-21T07:19:11;62.05;;;25.17;;
75234;SDS011;63817;51.228;-1.472;2023-04-21T07:21:36;51.15;;;26.08;;
75234;SDS011;63817;51.228;-1.472;2023-04-21T07:24:02;54.30;;;25.85;;
75234;SDS011;63817;51.228;-1.472;2023-04-21T07:26:27;51.20;;;27.58;;
75234;SDS011;63817;51.228;-1.472;2023-04-21T07:28:53;53.47;;;26.95;;
75234;SDS011;63817;51.228;-1.472;2023-04-21T07:31:19;56.70;;;26.67;;
75234;SDS011;63817;51.228;-1.472;2023-04-21T07:33:45;59.30;;;29.00;;
75234;SDS011;63817;51.228;-1.472;2023-04-21T07:36:10;47.45;;;26.25;;
75234;SDS011;63817;51.228;-1.472;2023-04-21T07:38:36;53.00;;;25.20;;
75234;SDS011;63817;51.228;-1.472;2023-04-21T07:41:02;55.83;;;27.20;;
75234;SDS011;63817;51.228;-1.472;2023-04-21T07:43:28;54.92;;;26.95;;
75234;SDS011;63817;51.228;-1.472;2023-04-21T07:45:55;48.83;;;26.45;;
75234;SDS011;63817;51.228;-1.472;2023-04-21T07:48:20;47.88;;;25.15;;
75234;SDS011;63817;51.228;-1.472;2023-04-21T07:50:46;50.25;;;25.83;;
75234;SDS011;63817;51.228;-1.472;2023-04-21T07:53:11;55.35;;;26.27;;
75234;SDS011;63817;51.228;-1.472;2023-04-21T07:55:36;58.58;;;27.98;;
75234;SDS011;63817;51.228;-1.472;2023-04-21T07:58:03;55.15;;;26.02;;
75234;SDS011;63817;51.228;-1.472;2023-04-21T08:00:29;56.10;;;25.73;;
75234;SDS011;63817;51.228;-1.472;2023-04-21T08:02:54;54.53;;;26.92;;
75234;SDS011;63817;51.228;-1.472;2023-04-21T08:05:20;45.30;;;25.00;;
75234;SDS011;63817;51.228;-1.472;2023-04-21T08:07:45;46.10;;;23.70;;
75234;SDS011;63817;51.228;-1.472;2023-04-21T08:10:11;53.92;;;24.63;;
75234;SDS011;63817;51.228;-1.472;2023-04-21T08:12:36;52.65;;;24.52;;
75234;SDS011;63817;51.228;-1.472;2023-04-21T08:15:02;44.58;;;24.02;;
75234;SDS011;63817;51.228;-1.472;2023-04-21T08:17:31;46.22;;;23.75;;
75234;SDS011;63817;51.228;-1.472;2023-04-21T08:19:56;44.88;;;23.42;;
75234;SDS011;63817;51.228;-1.472;2023-04-21T08:22:22;54.28;;;24.48;;
75234;SDS011;63817;51.228;-1.472;2023-04-21T08:24:47;54.75;;;26.00;;
75234;SDS011;63817;51.228;-1.472;2023-04-21T08:27:13;50.80;;;24.30;;
75234;SDS011;63817;51.228;-1.472;2023-04-21T08:29:38;59.83;;;24.55;;
75234;SDS011;63817;51.228;-1.472;2023-04-21T08:32:04;46.25;;;22.20;;
75234;SDS011;63817;51.228;-1.472;2023-04-21T08:34:29;48.28;;;22.70;;
75234;SDS011;63817;51.228;-1.472;2023-04-21T08:36:55;50.03;;;22.63;;
75234;SDS011;63817;51.228;-1.472;2023-04-21T08:39:20;42.85;;;20.58;;
75234;SDS011;63817;51.228;-1.472;2023-04-21T08:41:46;50.00;;;23.88;;
75234;SDS011;63817;51.228;-1.472;2023-04-21T08:44:12;38.38;;;20.10;;
75234;SDS011;63817;51.228;-1.472;2023-04-21T08:46:37;44.10;;;20.42;;
75234;SDS011;63817;51.228;-1.472;2023-04-21T08:49:03;40.40;;;21.15;;
75234;SDS011;63817;51.228;-1.472;2023-04-21T08:51:29;46.20;;;22.25;;
75234;SDS011;63817;51.228;-1.472;2023-04-21T08:53:55;42.35;;;20.73;;
75234;SDS011;63817;51.228;-1.472;2023-04-21T08:56:24;36.90;;;20.23;;
75234;SDS011;63817;51.228;-1.472;2023-04-21T08:58:50;40.38;;;19.02;;
75234;SDS011;63817;51.228;-1.472;2023-04-21T09:01:15;37.25;;;19.90;;
75234;SDS011;63817;51.228;-1.472;2023-04-21T09:03:41;37.22;;;18.40;;
75234;SDS011;63817;51.228;-1.472;2023-04-21T09:06:08;33.63;;;19.48;;
75234;SDS011;63817;51.228;-1.472;2023-04-21T09:08:36;39.47;;;19.45;;
75234;SDS011;63817;51.228;-1.472;2023-04-21T09:11:02;35.58;;;18.50;;
75234;SDS011;63817;51.228;-1.472;2023-04-21T09:13:31;36.90;;;19.52;;
75234;SDS011;63817;51.228;-1.472;2023-04-21T09:15:59;33.38;;;17.60;;
75234;SDS011;63817;51.228;-1.472;2023-04-21T09:18:26;31.55;;;17.23;;
75234;SDS011;63817;51.228;-1.472;2023-04-21T09:23:43;30.73;;;16.17;;
75234;SDS011;63817;51.228;-1.472;2023-04-21T09:26:09;26.52;;;14.88;;
75234;SDS011;63817;51.228;-1.472;2023-04-21T09:28:35;26.60;;;14.13;;
75234;SDS011;63817;51.228;-1.472;2023-04-21T09:31:00;24.17;;;13.43;;
75234;SDS011;63817;51.228;-1.472;2023-04-21T09:33:26;21.55;;;12.48;;
75234;SDS011;63817;51.228;-1.472;2023-04-21T09:35:52;23.73;;;14.45;;
75234;SDS011;63817;51.228;-1.472;2023-04-21T09:38:20;24.80;;;13.80;;
75234;SDS011;63817;51.228;-1.472;2023-04-21T09:40:51;23.40;;;13.93;;
75234;SDS011;63817;51.228;-1.472;2023-04-21T09:43:20;21.27;;;12.18;;
75234;SDS011;63817;51.228;-1.472;2023-04-21T09:45:46;22.85;;;13.50;;
75234;SDS011;63817;51.228;-1.472;2023-04-21T09:48:12;24.95;;;13.85;;
75234;SDS011;63817;51.228;-1.472;2023-04-21T09:50:41;23.13;;;13.35;;
75234;SDS011;63817;51.228;-1.472;2023-04-21T09:53:07;19.77;;;13.55;;
75234;SDS011;63817;51.228;-1.472;2023-04-21T09:55:38;22.10;;;13.45;;
75234;SDS011;63817;51.228;-1.472;2023-04-21T09:58:05;21.17;;;11.85;;
75234;SDS011;63817;51.228;-1.472;2023-04-21T10:00:32;23.08;;;11.85;;
75234;SDS011;63817;51.228;-1.472;2023-04-21T10:03:03;22.27;;;12.68;;
75234;SDS011;63817;51.228;-1.472;2023-04-21T10:05:29;24.10;;;14.27;;
75234;SDS011;63817;51.228;-1.472;2023-04-21T10:07:55;23.05;;;13.35;;
75234;SDS011;63817;51.228;-1.472;2023-04-21T10:10:24;21.67;;;13.07;;
75234;SDS011;63817;51.228;-1.472;2023-04-21T10:12:51;23.35;;;14.20;;
75234;SDS011;63817;51.228;-1.472;2023-04-21T10:25:59;19.77;;;12.88;;
75234;SDS011;63817;51.228;-1.472;2023-04-21T10:31:28;19.42;;;13.25;;
75234;SDS011;63817;51.228;-1.472;2023-04-21T10:36:30;23.13;;;13.80;;
75234;SDS011;63817;51.228;-1.472;2023-04-21T10:38:59;20.77;;;11.95;;
75234;SDS011;63817;51.228;-1.472;2023-04-21T10:41:31;20.88;;;13.07;;
75234;SDS011;63817;51.228;-1.472;2023-04-21T10:49:10;22.45;;;13.57;;
75234;SDS011;63817;51.228;-1.472;2023-04-21T10:56:50;20.00;;;12.63;;
75234;SDS011;63817;51.228;-1.472;2023-04-21T10:59:17;19.20;;;11.63;;
75234;SDS011;63817;51.228;-1.472;2023-04-21T11:01:42;18.23;;;11.57;;
75234;SDS011;63817;51.228;-1.472;2023-04-21T11:04:15;17.30;;;11.23;;
75234;SDS011;63817;51.228;-1.472;2023-04-21T11:06:41;16.48;;;10.98;;
75234;SDS011;63817;51.228;-1.472;2023-04-21T11:09:07;18.98;;;11.75;;
75234;SDS011;63817;51.228;-1.472;2023-04-21T11:11:33;18.30;;;12.02;;
75234;SDS011;63817;51.228;-1.472;2023-04-21T11:14:00;15.45;;;11.10;;
75234;SDS011;63817;51.228;-1.472;2023-04-21T11:16:26;17.38;;;11.15;;
75234;SDS011;63817;51.228;-1.472;2023-04-21T11:18:52;20.02;;;11.95;;
75234;SDS011;63817;51.228;-1.472;2023-04-21T11:21:20;14.80;;;10.93;;
75234;SDS011;63817;51.228;-1.472;2023-04-21T11:23:47;22.05;;;11.45;;
75234;SDS011;63817;51.228;-1.472;2023-04-21T11:26:13;14.70;;;10.60;;
75234;SDS011;63817;51.228;-1.472;2023-04-21T11:28:39;18.23;;;10.38;;
75234;SDS011;63817;51.228;-1.472;2023-04-21T11:31:06;15.40;;;10.73;;
75234;SDS011;63817;51.228;-1.472;2023-04-21T11:33:34;14.07;;;10.50;;
75234;SDS011;63817;51.228;-1.472;2023-04-21T11:36:04;16.65;;;11.00;;
75234;SDS011;63817;51.228;-1.472;2023-04-21T11:38:50;17.90;;;11.68;;
75234;SDS011;63817;51.228;-1.472;2023-04-21T11:41:19;14.45;;;10.40;;
75234;SDS011;63817;51.228;-1.472;2023-04-21T11:43:45;16.98;;;10.68;;
75234;SDS011;63817;51.228;-1.472;2023-04-21T11:46:12;12.95;;;9.40;;
75234;SDS011;63817;51.228;-1.472;2023-04-21T11:48:37;14.02;;;9.15;;
75234;SDS011;63817;51.228;-1.472;2023-04-21T11:51:03;13.02;;;9.35;;
75234;SDS011;63817;51.228;-1.472;2023-04-21T11:53:28;11.93;;;9.15;;
75234;SDS011;63817;51.228;-1.472;2023-04-21T11:55:53;13.02;;;8.85;;
75234;SDS011;63817;51.228;-1.472;2023-04-21T11:58:20;12.52;;;8.43;;
75234;SDS011;63817;51.228;-1.472;2023-04-21T12:00:46;10.07;;;7.35;;
75234;SDS011;63817;51.228;-1.472;2023-04-21T12:03:11;8.82;;;6.97;;
75234;SDS011;63817;51.228;-1.472;2023-04-21T12:05:37;8.68;;;6.68;;
75234;SDS011;63817;51.228;-1.472;2023-04-21T12:08:02;10.18;;;7.20;;
75234;SDS011;63817;51.228;-1.472;2023-04-21T12:10:30;9.27;;;6.60;;
75234;SDS011;63817;51.228;-1.472;2023-04-21T12:12:56;12.05;;;6.93;;
75234;SDS011;63817;51.228;-1.472;2023-04-21T12:15:21;7.90;;;6.47;;
75234;SDS011;63817;51.228;-1.472;2023-04-21T12:17:50;8.75;;;6.22;;
75234;SDS011;63817;51.228;-1.472;2023-04-21T12:20:17;9.55;;;6.65;;
75234;SDS011;63817;51.228;-1.472;2023-04-21T12:22:44;9.73;;;7.25;;
75234;SDS011;63817;51.228;-1.472;2023-04-21T12:25:09;8.48;;;6.28;;
75234;SDS011;63817;51.228;-1.472;2023-04-21T12:27:35;8.82;;;7.32;;
75234;SDS011;63817;51.228;-1.472;2023-04-21T12:30:00;10.20;;;7.25;;
75234;SDS011;63817;51.228;-1.472;2023-04-21T12:32:27;13.00;;;8.07;;
75234;SDS011;63817;51.228;-1.472;2023-04-21T12:34:52;13.45;;;7.82;;
75234;SDS011;63817;51.228;-1.472;2023-04-21T12:37:17;11.05;;;8.10;;
75234;SDS011;63817;51.228;-1.472;2023-04-21T12:39:43;15.25;;;9.88;;
75234;SDS011;63817;51.228;-1.472;2023-04-21T12:42:08;13.40;;;8.98;;
75234;SDS011;63817;51.228;-1.472;2023-04-21T12:44:34;11.15;;;7.57;;
75234;SDS011;63817;51.228;-1.472;2023-04-21T12:46:59;12.65;;;7.75;;
75234;SDS011;63817;51.228;-1.472;2023-04-21T12:49:25;9.02;;;6.85;;
75234;SDS011;63817;51.228;-1.472;2023-04-21T12:51:50;8.95;;;5.90;;
75234;SDS011;63817;51.228;-1.472;2023-04-21T12:54:16;8.95;;;5.32;;
75234;SDS011;63817;51.228;-1.472;2023-04-21T12:56:41;6.72;;;5.13;;
75234;SDS011;63817;51.228;-1.472;2023-04-21T12:59:07;7.18;;;5.18;;
75234;SDS011;63817;51.228;-1.472;2023-04-21T13:01:34;10.10;;;5.80;;
75234;SDS011;63817;51.228;-1.472;2023-04-21T13:04:00;7.20;;;5.55;;
75234;SDS011;63817;51.228;-1.472;2023-04-21T13:06:26;8.63;;;5.85;;
75234;SDS011;63817;51.228;-1.472;2023-04-21T13:08:52;9.38;;;5.95;;
75234;SDS011;63817;51.228;-1.472;2023-04-21T13:11:17;9.30;;;5.32;;
75234;SDS011;63817;51.228;-1.472;2023-04-21T13:13:43;6.63;;;4.97;;
75234;SDS011;63817;51.228;-1.472;2023-04-21T13:16:08;7.65;;;5.88;;
75234;SDS011;63817;51.228;-1.472;2023-04-21T13:18:34;8.07;;;5.90;;
75234;SDS011;63817;51.228;-1.472;2023-04-21T13:21:00;7.40;;;5.57;;
75234;SDS011;63817;51.228;-1.472;2023-04-21T13:23:25;7.10;;;5.55;;
75234;SDS011;63817;51.228;-1.472;2023-04-21T13:25:51;6.82;;;4.85;;
75234;SDS011;63817;51.228;-1.472;2023-04-21T13:28:17;7.40;;;5.13;;
75234;SDS011;63817;51.228;-1.472;2023-04-21T13:30:42;10.15;;;5.43;;
75234;SDS011;63817;51.228;-1.472;2023-04-21T13:33:08;7.30;;;5.63;;
75234;SDS011;63817;51.228;-1.472;2023-04-21T13:35:34;7.78;;;6.05;;
75234;SDS011;63817;51.228;-1.472;2023-04-21T13:38:00;6.85;;;4.80;;
75234;SDS011;63817;51.228;-1.472;2023-04-21T13:40:25;7.38;;;5.60;;
75234;SDS011;63817;51.228;-1.472;2023-04-21T13:42:51;6.38;;;5.30;;
75234;SDS011;63817;51.228;-1.472;2023-04-21T13:45:16;8.80;;;5.88;;
75234;SDS011;63817;51.228;-1.472;2023-04-21T13:47:41;5.45;;;4.38;;
75234;SDS011;63817;51.228;-1.472;2023-04-21T13:50:07;7.47;;;5.70;;
75234;SDS011;63817;51.228;-1.472;2023-04-21T13:52:33;7.28;;;5.00;;
75234;SDS011;63817;51.228;-1.472;2023-04-21T13:55:00;6.18;;;4.68;;
75234;SDS011;63817;51.228;-1.472;2023-04-21T13:57:25;5.50;;;4.82;;
75234;SDS011;63817;51.228;-1.472;2023-04-21T13:59:51;6.03;;;4.60;;
75234;SDS011;63817;51.228;-1.472;2023-04-21T14:02:18;7.50;;;5.95;;
75234;SDS011;63817;51.228;-1.472;2023-04-21T14:04:43;6.15;;;4.90;;
75234;SDS011;63817;51.228;-1.472;2023-04-21T14:07:09;6.82;;;4.90;;
75234;SDS011;63817;51.228;-1.472;2023-04-21T14:09:34;8.15;;;6.72;;
75234;SDS011;63817;51.228;-1.472;2023-04-21T14:12:00;8.07;;;6.10;;
75234;SDS011;63817;51.228;-1.472;2023-04-21T14:14:27;7.68;;;5.50;;
75234;SDS011;63817;51.228;-1.472;2023-04-21T14:16:52;7.75;;;5.85;;
75234;SDS011;63817;51.228;-1.472;2023-04-21T14:19:18;8.48;;;6.68;;
75234;SDS011;63817;51.228;-1.472;2023-04-21T14:21:43;7.63;;;5.07;;
75234;SDS011;63817;51.228;-1.472;2023-04-21T14:24:08;6.72;;;5.35;;
75234;SDS011;63817;51.228;-1.472;2023-04-21T14:26:34;8.13;;;6.18;;
75234;SDS011;63817;51.228;-1.472;2023-04-21T14:28:59;7.18;;;5.72;;
75234;SDS011;63817;51.228;-1.472;2023-04-21T14:31:28;6.88;;;5.90;;
75234;SDS011;63817;51.228;-1.472;2023-04-21T14:33:54;7.28;;;5.88;;
75234;SDS011;63817;51.228;-1.472;2023-04-21T14:36:19;8.68;;;5.75;;